WZZ4707 LEZL-EPWA
Flight info
| Callsign | WZZ4707 |
|---|---|
| Flight time | N/A |
| Altitude | 34000 |
| Route | HIJ DCT PARKA DCT SOTUK DCT USOKO DCT TLD DCT SIE DCT BASIM DCT GASMO DCT VABAR T430 LPA DCT GOSVI DCT TOPTU DCT TOU DCT GAI DCT MEN DCT NINUN DCT LATAM DCT ETREK DCT LTP DCT SOPLO DCT OMASI DCT KINNI DCT SOSAL DCT KORED DCT BERSU N871 DITON DCT DEGES DCT GAMSA/N0448F350 DCT TULSI DCT INPUL DCT MATIG DCT UPLAV DCT NETIR DCT KOTEK DCT LOGDA |
| Aircraft | A21N/M-SDE3FGHIRWY/LB1 |
Departure
| Time | 2026-04-28 17:14 |
|---|---|
| Airport | Seville Airport (LEZL) |
Arrival
| Time | N/A |
|---|---|
| Airport | Warsaw Chopin Airport (EPWA) |
| Time | Latitude | Longitude | Altitude | Speed | Heading |
|---|---|---|---|---|---|
| 2026-04-28 16:46 | 37.42188 | -5.89728 | 116 ft | 0 kts | 315° |
| 2026-04-28 17:05 | 37.42189 | -5.89730 | 116 ft | 0 kts | 315° |
| 2026-04-28 17:05 | 37.42193 | -5.89735 | 116 ft | 0 kts | 315° |
| 2026-04-28 17:06 | 37.42205 | -5.89749 | 116 ft | 1 kts | 323° |
| 2026-04-28 17:06 | 37.42217 | -5.89757 | 116 ft | 2 kts | 337° |
| 2026-04-28 17:06 | 37.42269 | -5.89743 | 116 ft | 5 kts | 33° |
| 2026-04-28 17:07 | 37.42270 | -5.89708 | 116 ft | 6 kts | 144° |
| 2026-04-28 17:07 | 37.42233 | -5.89672 | 116 ft | 7 kts | 137° |
| 2026-04-28 17:07 | 37.42196 | -5.89628 | 116 ft | 7 kts | 135° |
| 2026-04-28 17:07 | 37.42159 | -5.89581 | 116 ft | 7 kts | 134° |
| 2026-04-28 17:08 | 37.42122 | -5.89534 | 116 ft | 7 kts | 135° |
| 2026-04-28 17:08 | 37.42083 | -5.89485 | 116 ft | 7 kts | 135° |
| 2026-04-28 17:08 | 37.42043 | -5.89436 | 116 ft | 8 kts | 135° |
| 2026-04-28 17:08 | 37.42003 | -5.89383 | 116 ft | 8 kts | 132° |
| 2026-04-28 17:09 | 37.41983 | -5.89315 | 116 ft | 8 kts | 94° |
| 2026-04-28 17:09 | 37.41983 | -5.89238 | 116 ft | 8 kts | 89° |
| 2026-04-28 17:09 | 37.41984 | -5.89158 | 116 ft | 9 kts | 90° |
| 2026-04-28 17:09 | 37.41984 | -5.89075 | 116 ft | 9 kts | 90° |
| 2026-04-28 17:10 | 37.41984 | -5.88989 | 116 ft | 9 kts | 90° |
| 2026-04-28 17:10 | 37.41983 | -5.88901 | 116 ft | 10 kts | 90° |
| 2026-04-28 17:10 | 37.41984 | -5.88810 | 116 ft | 10 kts | 90° |
| 2026-04-28 17:10 | 37.41983 | -5.88716 | 116 ft | 10 kts | 90° |
| 2026-04-28 17:11 | 37.41983 | -5.88622 | 116 ft | 10 kts | 90° |
| 2026-04-28 17:11 | 37.41984 | -5.88525 | 116 ft | 11 kts | 89° |
| 2026-04-28 17:11 | 37.41985 | -5.88420 | 116 ft | 12 kts | 90° |
| 2026-04-28 17:11 | 37.41985 | -5.88305 | 116 ft | 13 kts | 89° |
| 2026-04-28 17:12 | 37.41985 | -5.88177 | 116 ft | 14 kts | 90° |
| 2026-04-28 17:12 | 37.41986 | -5.88041 | 116 ft | 15 kts | 90° |
| 2026-04-28 17:12 | 37.41986 | -5.87900 | 116 ft | 16 kts | 90° |
| 2026-04-28 17:12 | 37.41987 | -5.87751 | 116 ft | 16 kts | 89° |
| 2026-04-28 17:13 | 37.41986 | -5.87604 | 116 ft | 16 kts | 91° |
| 2026-04-28 17:13 | 37.41954 | -5.87475 | 116 ft | 15 kts | 132° |
| 2026-04-28 17:13 | 37.41863 | -5.87426 | 116 ft | 14 kts | 191° |
| 2026-04-28 17:13 | 37.41794 | -5.87500 | 116 ft | 13 kts | 262° |
| 2026-04-28 17:14 | 37.41795 | -5.87836 | 116 ft | 75 kts | 269° |
| 2026-04-28 17:14 | 37.41800 | -5.88798 | 116 ft | 142 kts | 268° |
| 2026-04-28 17:14 | 37.41749 | -5.90210 | 508 ft | 161 kts | 267° |
| 2026-04-28 17:14 | 37.41740 | -5.91596 | 952 ft | 164 kts | 275° |
| 2026-04-28 17:15 | 37.42250 | -5.92955 | 1200 ft | 184 kts | 311° |
| 2026-04-28 17:15 | 37.43225 | -5.94066 | 1579 ft | 196 kts | 315° |
| 2026-04-28 17:15 | 37.44304 | -5.95276 | 1901 ft | 212 kts | 316° |
| 2026-04-28 17:15 | 37.45440 | -5.96576 | 2205 ft | 229 kts | 315° |
| 2026-04-28 17:16 | 37.46668 | -5.98001 | 2488 ft | 249 kts | 315° |
| 2026-04-28 17:16 | 37.47968 | -5.99525 | 2928 ft | 263 kts | 315° |
| 2026-04-28 17:16 | 37.49330 | -6.01131 | 3501 ft | 271 kts | 314° |
| 2026-04-28 17:16 | 37.50717 | -6.02779 | 4161 ft | 276 kts | 315° |
| 2026-04-28 17:17 | 37.52110 | -6.04439 | 4830 ft | 279 kts | 315° |
| 2026-04-28 17:17 | 37.53535 | -6.06132 | 5513 ft | 282 kts | 315° |
| 2026-04-28 17:17 | 37.54977 | -6.07841 | 6213 ft | 284 kts | 315° |
| 2026-04-28 17:17 | 37.56403 | -6.09536 | 6874 ft | 287 kts | 316° |
| 2026-04-28 17:18 | 37.58104 | -6.10933 | 7467 ft | 294 kts | 341° |
| 2026-04-28 17:18 | 37.60150 | -6.11184 | 8104 ft | 298 kts | 11° |
| 2026-04-28 17:18 | 37.62046 | -6.10212 | 8697 ft | 298 kts | 38° |
| 2026-04-28 17:18 | 37.63634 | -6.08499 | 9315 ft | 299 kts | 44° |
| 2026-04-28 17:19 | 37.65167 | -6.06708 | 9896 ft | 302 kts | 44° |
| 2026-04-28 17:19 | 37.66725 | -6.04896 | 10488 ft | 304 kts | 43° |
| 2026-04-28 17:19 | 37.68313 | -6.03079 | 11080 ft | 306 kts | 42° |
| 2026-04-28 17:19 | 37.69928 | -6.01253 | 11655 ft | 309 kts | 41° |
| 2026-04-28 17:20 | 37.71519 | -5.99465 | 12211 ft | 311 kts | 41° |
| 2026-04-28 17:20 | 37.73144 | -5.97652 | 12752 ft | 313 kts | 41° |
| 2026-04-28 17:20 | 37.74794 | -5.95815 | 13265 ft | 316 kts | 41° |
| 2026-04-28 17:20 | 37.76447 | -5.93974 | 13775 ft | 319 kts | 41° |
| 2026-04-28 17:21 | 37.78111 | -5.92120 | 14270 ft | 321 kts | 41° |
| 2026-04-28 17:21 | 37.79802 | -5.90235 | 14765 ft | 324 kts | 41° |
| 2026-04-28 17:21 | 37.81493 | -5.88350 | 15234 ft | 327 kts | 42° |
| 2026-04-28 17:22 | 37.85057 | -5.84366 | 15699 ft | 350 kts | 42° |
| 2026-04-28 17:22 | 37.86898 | -5.82306 | 15906 ft | 361 kts | 42° |
| 2026-04-28 17:22 | 37.88816 | -5.80158 | 16107 ft | 372 kts | 42° |
| 2026-04-28 17:23 | 37.92802 | -5.75689 | 16490 ft | 393 kts | 42° |
| 2026-04-28 17:23 | 37.94883 | -5.73355 | 16729 ft | 401 kts | 42° |
| 2026-04-28 17:23 | 37.96990 | -5.70990 | 17126 ft | 404 kts | 42° |
| 2026-04-28 17:23 | 37.99108 | -5.68613 | 17549 ft | 406 kts | 42° |
| 2026-04-28 17:24 | 38.01229 | -5.66231 | 17950 ft | 409 kts | 42° |
| 2026-04-28 17:24 | 38.03365 | -5.63829 | 18331 ft | 411 kts | 42° |
| 2026-04-28 17:24 | 38.05532 | -5.61391 | 18719 ft | 414 kts | 42° |
| 2026-04-28 17:24 | 38.07671 | -5.58980 | 19093 ft | 416 kts | 42° |
| 2026-04-28 17:25 | 38.09850 | -5.56524 | 19449 ft | 419 kts | 42° |
| 2026-04-28 17:25 | 38.14250 | -5.51557 | 20150 ft | 424 kts | 42° |
| 2026-04-28 17:25 | 38.16459 | -5.49061 | 20495 ft | 426 kts | 42° |
| 2026-04-28 17:26 | 38.18664 | -5.46566 | 20830 ft | 428 kts | 42° |
| 2026-04-28 17:26 | 38.20931 | -5.44000 | 21164 ft | 430 kts | 42° |
| 2026-04-28 17:26 | 38.23172 | -5.41461 | 21486 ft | 432 kts | 42° |
| 2026-04-28 17:26 | 38.25474 | -5.38851 | 21808 ft | 434 kts | 42° |
| 2026-04-28 17:27 | 38.27743 | -5.36275 | 22109 ft | 436 kts | 42° |
| 2026-04-28 17:27 | 38.30021 | -5.33688 | 22398 ft | 438 kts | 43° |
| 2026-04-28 17:27 | 38.32336 | -5.31057 | 22677 ft | 441 kts | 43° |
| 2026-04-28 17:27 | 38.34640 | -5.28435 | 22934 ft | 443 kts | 43° |
| 2026-04-28 17:28 | 38.36924 | -5.25833 | 23196 ft | 446 kts | 43° |
| 2026-04-28 17:28 | 38.41613 | -5.20489 | 23729 ft | 450 kts | 42° |
| 2026-04-28 17:28 | 38.43936 | -5.17837 | 23992 ft | 451 kts | 42° |
| 2026-04-28 17:29 | 38.46326 | -5.15104 | 24261 ft | 453 kts | 42° |
| 2026-04-28 17:29 | 38.48751 | -5.12537 | 24488 ft | 456 kts | 33° |
| 2026-04-28 17:29 | 38.51695 | -5.10782 | 24695 ft | 457 kts | 14° |
| 2026-04-28 17:30 | 38.58042 | -5.10521 | 25229 ft | 455 kts | 353° |
| 2026-04-28 17:30 | 38.64418 | -5.11296 | 25670 ft | 459 kts | 353° |
| 2026-04-28 17:30 | 38.67716 | -5.11675 | 25910 ft | 460 kts | 354° |
| 2026-04-28 17:31 | 38.70975 | -5.12030 | 26139 ft | 462 kts | 354° |
| 2026-04-28 17:31 | 38.77531 | -5.12713 | 26580 ft | 464 kts | 354° |
| 2026-04-28 17:32 | 38.84100 | -5.13385 | 26986 ft | 467 kts | 354° |
| 2026-04-28 17:32 | 38.87442 | -5.13727 | 27184 ft | 469 kts | 354° |
| 2026-04-28 17:32 | 38.90735 | -5.14064 | 27390 ft | 470 kts | 354° |
| 2026-04-28 17:32 | 38.94074 | -5.14372 | 27589 ft | 472 kts | 358° |
| 2026-04-28 17:33 | 38.97381 | -5.13867 | 27725 ft | 476 kts | 15° |
| 2026-04-28 17:33 | 39.00427 | -5.12070 | 27966 ft | 476 kts | 34° |
| 2026-04-28 17:33 | 39.02889 | -5.09190 | 28241 ft | 474 kts | 52° |
| 2026-04-28 17:33 | 39.04117 | -5.06912 | 28438 ft | 472 kts | 58° |
| 2026-04-28 17:34 | 39.06383 | -5.02068 | 28802 ft | 471 kts | 60° |
| 2026-04-28 17:34 | 39.08055 | -4.98422 | 29015 ft | 472 kts | 60° |
| 2026-04-28 17:34 | 39.09795 | -4.94688 | 29263 ft | 471 kts | 59° |
| 2026-04-28 17:34 | 39.11534 | -4.91014 | 29524 ft | 471 kts | 59° |
| 2026-04-28 17:35 | 39.13270 | -4.87383 | 29781 ft | 470 kts | 59° |
| 2026-04-28 17:35 | 39.15036 | -4.83697 | 30042 ft | 470 kts | 59° |
| 2026-04-28 17:35 | 39.16872 | -4.80216 | 30277 ft | 470 kts | 52° |
| 2026-04-28 17:35 | 39.19115 | -4.76990 | 30517 ft | 470 kts | 43° |
| 2026-04-28 17:36 | 39.21634 | -4.74269 | 30758 ft | 469 kts | 35° |
| 2026-04-28 17:36 | 39.24448 | -4.72017 | 30998 ft | 468 kts | 26° |
| 2026-04-28 17:36 | 39.27466 | -4.70248 | 31245 ft | 466 kts | 21° |
| 2026-04-28 17:36 | 39.30455 | -4.68702 | 31470 ft | 466 kts | 20° |
| 2026-04-28 17:37 | 39.33450 | -4.67106 | 31676 ft | 467 kts | 25° |
| 2026-04-28 17:37 | 39.36456 | -4.64740 | 31895 ft | 468 kts | 37° |
| 2026-04-28 17:37 | 39.38786 | -4.62191 | 32118 ft | 467 kts | 42° |
| 2026-04-28 17:37 | 39.41175 | -4.59298 | 32337 ft | 467 kts | 43° |
| 2026-04-28 17:38 | 39.43549 | -4.56365 | 32494 ft | 468 kts | 43° |
| 2026-04-28 17:38 | 39.45899 | -4.53468 | 32650 ft | 469 kts | 43° |
| 2026-04-28 17:38 | 39.48284 | -4.50545 | 32822 ft | 470 kts | 43° |
| 2026-04-28 17:38 | 39.50681 | -4.47620 | 32999 ft | 470 kts | 43° |
| 2026-04-28 17:39 | 39.53062 | -4.44724 | 33168 ft | 471 kts | 43° |
| 2026-04-28 17:39 | 39.55452 | -4.41820 | 33331 ft | 472 kts | 43° |
| 2026-04-28 17:39 | 39.60250 | -4.35990 | 33651 ft | 473 kts | 42° |
| 2026-04-28 17:40 | 39.62656 | -4.33065 | 33805 ft | 473 kts | 43° |
| 2026-04-28 17:40 | 39.67453 | -4.27226 | 33870 ft | 475 kts | 43° |
| 2026-04-28 17:41 | 39.72261 | -4.21361 | 33872 ft | 475 kts | 43° |
| 2026-04-28 17:41 | 39.77140 | -4.15399 | 33873 ft | 476 kts | 43° |
| 2026-04-28 17:42 | 39.81992 | -4.09456 | 33873 ft | 475 kts | 43° |
| 2026-04-28 17:42 | 39.86866 | -4.03477 | 33873 ft | 475 kts | 43° |
| 2026-04-28 17:43 | 39.91703 | -3.97529 | 33871 ft | 475 kts | 43° |
| 2026-04-28 17:43 | 39.96527 | -3.91585 | 33866 ft | 475 kts | 43° |
| 2026-04-28 17:44 | 40.01430 | -3.85532 | 33860 ft | 475 kts | 43° |
| 2026-04-28 17:44 | 40.06273 | -3.79539 | 33854 ft | 475 kts | 43° |
| 2026-04-28 17:45 | 40.11105 | -3.73549 | 33849 ft | 475 kts | 43° |
| 2026-04-28 17:45 | 40.15916 | -3.67572 | 33848 ft | 475 kts | 43° |
| 2026-04-28 17:46 | 40.20721 | -3.61591 | 33847 ft | 475 kts | 43° |
| 2026-04-28 17:46 | 40.25523 | -3.55601 | 33847 ft | 475 kts | 43° |
| 2026-04-28 17:47 | 40.30277 | -3.49659 | 33847 ft | 475 kts | 43° |
| 2026-04-28 17:47 | 40.35066 | -3.43660 | 33847 ft | 475 kts | 43° |
| 2026-04-28 17:48 | 40.39875 | -3.37624 | 33847 ft | 475 kts | 43° |
| 2026-04-28 17:48 | 40.44663 | -3.31602 | 33846 ft | 475 kts | 43° |
| 2026-04-28 17:49 | 40.49464 | -3.25551 | 33847 ft | 475 kts | 43° |
| 2026-04-28 17:49 | 40.54264 | -3.19488 | 33847 ft | 475 kts | 43° |
| 2026-04-28 17:50 | 40.59072 | -3.13402 | 33847 ft | 475 kts | 43° |
| 2026-04-28 17:50 | 40.63877 | -3.07308 | 33847 ft | 475 kts | 43° |
| 2026-04-28 17:51 | 40.68677 | -3.01207 | 33853 ft | 475 kts | 43° |
| 2026-04-28 17:51 | 40.73469 | -2.95103 | 33864 ft | 475 kts | 43° |
| 2026-04-28 17:52 | 40.78289 | -2.88951 | 33877 ft | 475 kts | 43° |
| 2026-04-28 17:52 | 40.85451 | -2.79785 | 33892 ft | 475 kts | 43° |
| 2026-04-28 17:53 | 40.90200 | -2.73691 | 33895 ft | 475 kts | 43° |
| 2026-04-28 17:53 | 40.94958 | -2.67573 | 33898 ft | 476 kts | 43° |
| 2026-04-28 17:54 | 40.99700 | -2.61463 | 33899 ft | 476 kts | 43° |
| 2026-04-28 17:54 | 41.04429 | -2.55356 | 33899 ft | 476 kts | 43° |
| 2026-04-28 17:55 | 41.09151 | -2.49246 | 33899 ft | 476 kts | 43° |
| 2026-04-28 17:55 | 41.13815 | -2.43197 | 33899 ft | 476 kts | 43° |
| 2026-04-28 17:56 | 41.18565 | -2.37024 | 33900 ft | 477 kts | 43° |
| 2026-04-28 17:56 | 41.23303 | -2.30855 | 33899 ft | 477 kts | 44° |
| 2026-04-28 17:57 | 41.27994 | -2.24732 | 33899 ft | 477 kts | 44° |
| 2026-04-28 17:57 | 41.32745 | -2.18518 | 33900 ft | 478 kts | 44° |
| 2026-04-28 17:58 | 41.37479 | -2.12312 | 33900 ft | 478 kts | 44° |
| 2026-04-28 17:58 | 41.42244 | -2.06052 | 33897 ft | 478 kts | 44° |
| 2026-04-28 17:59 | 41.46991 | -1.99802 | 33889 ft | 479 kts | 44° |
| 2026-04-28 17:59 | 41.51717 | -1.93567 | 33877 ft | 479 kts | 44° |
| 2026-04-28 18:00 | 41.56451 | -1.87308 | 33865 ft | 479 kts | 44° |
| 2026-04-28 18:00 | 41.61211 | -1.81001 | 33855 ft | 479 kts | 44° |
| 2026-04-28 18:01 | 41.65936 | -1.74727 | 33850 ft | 479 kts | 44° |
| 2026-04-28 18:01 | 41.70686 | -1.68404 | 33848 ft | 479 kts | 44° |
| 2026-04-28 18:02 | 41.75430 | -1.62076 | 33847 ft | 479 kts | 44° |
| 2026-04-28 18:02 | 41.80170 | -1.55740 | 33846 ft | 479 kts | 44° |
| 2026-04-28 18:03 | 41.84919 | -1.49376 | 33846 ft | 479 kts | 44° |
| 2026-04-28 18:03 | 41.89632 | -1.43048 | 33846 ft | 479 kts | 44° |
| 2026-04-28 18:04 | 41.94402 | -1.36629 | 33846 ft | 479 kts | 44° |
| 2026-04-28 18:04 | 41.99149 | -1.30227 | 33846 ft | 479 kts | 44° |
| 2026-04-28 18:05 | 42.03141 | -1.24831 | 33846 ft | 481 kts | 44° |
| 2026-04-28 18:05 | 42.08753 | -1.17230 | 33845 ft | 488 kts | 44° |
| 2026-04-28 18:06 | 42.13563 | -1.10698 | 33850 ft | 489 kts | 44° |
| 2026-04-28 18:06 | 42.18342 | -1.04193 | 33858 ft | 489 kts | 44° |
| 2026-04-28 18:07 | 42.23131 | -0.97659 | 33870 ft | 489 kts | 44° |
| 2026-04-28 18:07 | 42.27927 | -0.91102 | 33883 ft | 490 kts | 44° |
| 2026-04-28 18:08 | 42.32724 | -0.84527 | 33892 ft | 489 kts | 44° |
| 2026-04-28 18:08 | 42.37517 | -0.77942 | 33896 ft | 490 kts | 44° |
| 2026-04-28 18:09 | 42.42276 | -0.71389 | 33899 ft | 490 kts | 44° |
| 2026-04-28 18:09 | 42.46956 | -0.64932 | 33900 ft | 490 kts | 44° |
| 2026-04-28 18:10 | 42.51613 | -0.58493 | 33899 ft | 490 kts | 44° |
| 2026-04-28 18:10 | 42.56247 | -0.52069 | 33900 ft | 491 kts | 44° |
| 2026-04-28 18:11 | 42.60915 | -0.45583 | 33901 ft | 491 kts | 44° |
| 2026-04-28 18:11 | 42.65535 | -0.39151 | 33904 ft | 491 kts | 44° |
| 2026-04-28 18:12 | 42.70248 | -0.32576 | 33909 ft | 491 kts | 45° |
| 2026-04-28 18:12 | 42.74860 | -0.26124 | 33917 ft | 492 kts | 45° |
| 2026-04-28 18:13 | 42.79445 | -0.19629 | 33922 ft | 492 kts | 47° |
| 2026-04-28 18:13 | 42.83762 | -0.12657 | 33925 ft | 492 kts | 50° |
| 2026-04-28 18:14 | 42.87993 | -0.05569 | 33927 ft | 492 kts | 50° |
| 2026-04-28 18:14 | 42.92322 | 0.01682 | 33931 ft | 492 kts | 50° |
| 2026-04-28 18:15 | 42.96606 | 0.08840 | 33928 ft | 487 kts | 51° |
| 2026-04-28 18:15 | 43.00910 | 0.16062 | 33928 ft | 488 kts | 51° |
| 2026-04-28 18:16 | 43.05195 | 0.23265 | 33928 ft | 488 kts | 51° |
| 2026-04-28 18:16 | 43.09472 | 0.30468 | 33929 ft | 488 kts | 51° |
| 2026-04-28 18:17 | 43.13744 | 0.37678 | 33933 ft | 489 kts | 51° |
| 2026-04-28 18:17 | 43.18044 | 0.44954 | 33940 ft | 489 kts | 51° |
| 2026-04-28 18:18 | 43.22319 | 0.52204 | 33946 ft | 489 kts | 51° |
| 2026-04-28 18:18 | 43.25875 | 0.58250 | 33950 ft | 489 kts | 51° |
| 2026-04-28 18:19 | 43.30834 | 0.66702 | 33952 ft | 489 kts | 51° |
| 2026-04-28 18:19 | 43.35123 | 0.74030 | 33954 ft | 489 kts | 51° |
| 2026-04-28 18:20 | 43.39386 | 0.81332 | 33954 ft | 489 kts | 51° |
| 2026-04-28 18:20 | 43.43628 | 0.88619 | 33950 ft | 489 kts | 51° |
| 2026-04-28 18:21 | 43.47899 | 0.95971 | 33941 ft | 489 kts | 51° |
| 2026-04-28 18:21 | 43.52148 | 1.03304 | 33936 ft | 489 kts | 51° |
| 2026-04-28 18:22 | 43.56359 | 1.10590 | 33936 ft | 489 kts | 51° |
| 2026-04-28 18:22 | 43.60574 | 1.17900 | 33940 ft | 489 kts | 51° |
| 2026-04-28 18:23 | 43.64803 | 1.25252 | 33946 ft | 490 kts | 52° |
| 2026-04-28 18:23 | 43.69031 | 1.32664 | 33950 ft | 490 kts | 53° |
| 2026-04-28 18:24 | 43.72408 | 1.38950 | 33953 ft | 489 kts | 54° |
| 2026-04-28 18:24 | 43.77094 | 1.47809 | 33954 ft | 490 kts | 54° |
| 2026-04-28 18:25 | 43.81135 | 1.55424 | 33954 ft | 490 kts | 54° |
| 2026-04-28 18:26 | 43.87167 | 1.66797 | 33953 ft | 490 kts | 54° |
| 2026-04-28 18:26 | 43.91169 | 1.74364 | 33954 ft | 491 kts | 54° |
| 2026-04-28 18:27 | 43.95190 | 1.81994 | 33955 ft | 491 kts | 54° |
| 2026-04-28 18:27 | 43.99094 | 1.89698 | 33955 ft | 491 kts | 56° |
| 2026-04-28 18:28 | 44.02867 | 1.97321 | 33955 ft | 491 kts | 56° |
| 2026-04-28 18:28 | 44.06646 | 2.04951 | 33958 ft | 491 kts | 56° |
| 2026-04-28 18:29 | 44.10450 | 2.12633 | 33963 ft | 491 kts | 56° |
| 2026-04-28 18:29 | 44.14270 | 2.20360 | 33970 ft | 491 kts | 56° |
| 2026-04-28 18:30 | 44.18073 | 2.28074 | 33977 ft | 491 kts | 56° |
| 2026-04-28 18:30 | 44.21840 | 2.35733 | 33980 ft | 491 kts | 56° |
| 2026-04-28 18:31 | 44.25639 | 2.43476 | 33981 ft | 491 kts | 56° |
| 2026-04-28 18:31 | 44.29462 | 2.51293 | 33983 ft | 492 kts | 56° |
| 2026-04-28 18:32 | 44.33271 | 2.59097 | 33983 ft | 492 kts | 56° |
| 2026-04-28 18:32 | 44.37088 | 2.66941 | 33982 ft | 492 kts | 57° |
| 2026-04-28 18:33 | 44.40920 | 2.74838 | 33983 ft | 492 kts | 57° |
| 2026-04-28 18:33 | 44.44708 | 2.82665 | 33983 ft | 492 kts | 57° |
| 2026-04-28 18:34 | 44.48539 | 2.90601 | 33983 ft | 492 kts | 57° |
| 2026-04-28 18:34 | 44.52343 | 2.98507 | 33985 ft | 492 kts | 56° |
| 2026-04-28 18:35 | 44.56152 | 3.06441 | 33990 ft | 492 kts | 56° |
| 2026-04-28 18:35 | 44.59925 | 3.14332 | 33996 ft | 491 kts | 57° |
| 2026-04-28 18:36 | 44.63401 | 3.22514 | 34002 ft | 491 kts | 61° |
| 2026-04-28 18:36 | 44.66743 | 3.30900 | 34006 ft | 491 kts | 61° |
| 2026-04-28 18:37 | 44.70068 | 3.39248 | 34008 ft | 491 kts | 61° |
| 2026-04-28 18:37 | 44.73385 | 3.47566 | 34009 ft | 490 kts | 61° |
| 2026-04-28 18:38 | 44.76696 | 3.55889 | 34009 ft | 490 kts | 61° |
| 2026-04-28 18:38 | 44.79971 | 3.64148 | 34009 ft | 490 kts | 61° |
| 2026-04-28 18:39 | 44.83180 | 3.72264 | 34009 ft | 490 kts | 62° |
| 2026-04-28 18:39 | 44.86383 | 3.80387 | 34009 ft | 490 kts | 62° |
| 2026-04-28 18:40 | 44.89568 | 3.88487 | 34009 ft | 491 kts | 62° |
| 2026-04-28 18:40 | 44.92736 | 3.96568 | 34012 ft | 491 kts | 62° |
| 2026-04-28 18:41 | 44.95926 | 4.04738 | 34018 ft | 490 kts | 61° |
| 2026-04-28 18:41 | 44.99152 | 4.13009 | 34024 ft | 490 kts | 61° |
| 2026-04-28 18:42 | 45.02358 | 4.21256 | 34028 ft | 490 kts | 61° |
| 2026-04-28 18:42 | 45.05598 | 4.29624 | 34027 ft | 490 kts | 61° |
| 2026-04-28 18:43 | 45.08853 | 4.38052 | 34025 ft | 490 kts | 61° |
| 2026-04-28 18:43 | 45.12058 | 4.46376 | 34021 ft | 491 kts | 61° |
| 2026-04-28 18:44 | 45.15253 | 4.54695 | 34017 ft | 491 kts | 61° |
| 2026-04-28 18:44 | 45.19972 | 4.67036 | 34012 ft | 491 kts | 62° |
| 2026-04-28 18:45 | 45.23054 | 4.75127 | 34011 ft | 491 kts | 62° |
| 2026-04-28 18:45 | 45.26160 | 4.83307 | 34011 ft | 491 kts | 62° |
| 2026-04-28 18:46 | 45.29270 | 4.91518 | 34013 ft | 491 kts | 62° |
| 2026-04-28 18:46 | 45.32339 | 4.99645 | 34017 ft | 491 kts | 62° |
| 2026-04-28 18:47 | 45.35369 | 5.07690 | 34023 ft | 492 kts | 61° |
| 2026-04-28 18:47 | 45.38418 | 5.15809 | 34029 ft | 492 kts | 61° |
| 2026-04-28 18:48 | 45.41392 | 5.23752 | 34033 ft | 492 kts | 61° |